sensor_id;sensor_type;location;lat;lon;timestamp;pressure;altitude;pressure_sealevel;temperature;humidity
31183;BME280;17813;0.000;0.000;2023-11-21T00:01:27;98772.66;;;8.15;86.09
31183;BME280;17813;0.000;0.000;2023-11-21T00:03:54;98770.66;;;8.18;86.17
31183;BME280;17813;0.000;0.000;2023-11-21T00:06:22;98767.75;;;8.23;86.13
31183;BME280;17813;0.000;0.000;2023-11-21T00:08:50;98770.28;;;8.24;86.32
31183;BME280;17813;0.000;0.000;2023-11-21T00:11:17;98766.69;;;8.25;85.98
31183;BME280;17813;0.000;0.000;2023-11-21T00:13:45;98769.53;;;8.22;86.14
31183;BME280;17813;0.000;0.000;2023-11-21T00:16:12;98765.94;;;8.23;85.95
31183;BME280;17813;0.000;0.000;2023-11-21T00:18:41;98770.47;;;8.21;86.16
31183;BME280;17813;0.000;0.000;2023-11-21T00:21:09;98764.34;;;8.21;86.47
31183;BME280;17813;0.000;0.000;2023-11-21T00:23:40;98762.47;;;8.23;86.44
31183;BME280;17813;0.000;0.000;2023-11-21T00:26:08;98772.06;;;8.24;86.25
31183;BME280;17813;0.000;0.000;2023-11-21T00:28:35;98770.09;;;8.27;86.07
31183;BME280;17813;0.000;0.000;2023-11-21T00:31:04;98773.78;;;8.25;86.04
31183;BME280;17813;0.000;0.000;2023-11-21T00:33:32;98771.03;;;8.26;86.12
31183;BME280;17813;0.000;0.000;2023-11-21T00:36:00;98773.88;;;8.23;85.96
31183;BME280;17813;0.000;0.000;2023-11-21T00:38:27;98784.81;;;8.17;86.17
31183;BME280;17813;0.000;0.000;2023-11-21T00:40:54;98782.94;;;8.05;87.17
31183;BME280;17813;0.000;0.000;2023-11-21T00:43:23;98777.19;;;7.98;87.55
31183;BME280;17813;0.000;0.000;2023-11-21T00:45:51;98781.81;;;7.95;87.50
31183;BME280;17813;0.000;0.000;2023-11-21T00:48:18;98783.63;;;7.94;87.26
31183;BME280;17813;0.000;0.000;2023-11-21T00:50:45;98784.66;;;7.92;87.14
31183;BME280;17813;0.000;0.000;2023-11-21T00:53:12;98784.47;;;7.95;87.21
31183;BME280;17813;0.000;0.000;2023-11-21T00:55:39;98790.59;;;7.95;87.49
31183;BME280;17813;0.000;0.000;2023-11-21T00:58:06;98793.31;;;7.94;87.47
31183;BME280;17813;0.000;0.000;2023-11-21T01:00:34;98794.19;;;7.94;87.85
31183;BME280;17813;0.000;0.000;2023-11-21T01:03:01;98789.56;;;7.98;87.45
31183;BME280;17813;0.000;0.000;2023-11-21T01:05:29;98794.44;;;8.04;87.38
31183;BME280;17813;0.000;0.000;2023-11-21T01:07:56;98787.56;;;8.01;88.24
31183;BME280;17813;0.000;0.000;2023-11-21T01:10:23;98790.22;;;8.01;87.98
31183;BME280;17813;0.000;0.000;2023-11-21T01:12:51;98794.56;;;8.02;88.35
31183;BME280;17813;0.000;0.000;2023-11-21T01:15:18;98787.66;;;8.00;88.57
31183;BME280;17813;0.000;0.000;2023-11-21T01:17:45;98797.19;;;8.02;88.34
31183;BME280;17813;0.000;0.000;2023-11-21T01:20:12;98789.28;;;8.02;88.16
31183;BME280;17813;0.000;0.000;2023-11-21T01:22:43;98793.59;;;8.03;87.86
31183;BME280;17813;0.000;0.000;2023-11-21T01:25:10;98795.22;;;8.06;87.76
31183;BME280;17813;0.000;0.000;2023-11-21T01:27:38;98794.16;;;8.09;87.46
31183;BME280;17813;0.000;0.000;2023-11-21T01:30:05;98801.91;;;8.12;87.56
31183;BME280;17813;0.000;0.000;2023-11-21T01:32:35;98796.44;;;8.15;87.79
31183;BME280;17813;0.000;0.000;2023-11-21T01:35:02;98804.91;;;8.20;87.54
31183;BME280;17813;0.000;0.000;2023-11-21T01:37:30;98797.94;;;8.19;87.88
31183;BME280;17813;0.000;0.000;2023-11-21T01:39:57;98796.97;;;8.20;87.75
31183;BME280;17813;0.000;0.000;2023-11-21T01:42:26;98813.31;;;8.12;88.28
31183;BME280;17813;0.000;0.000;2023-11-21T01:44:53;98813.31;;;8.12;88.13
31183;BME280;17813;0.000;0.000;2023-11-21T01:47:22;98808.97;;;8.11;88.09
31183;BME280;17813;0.000;0.000;2023-11-21T01:49:51;98808.88;;;8.13;88.16
31183;BME280;17813;0.000;0.000;2023-11-21T01:52:19;98807.19;;;8.12;87.70
31183;BME280;17813;0.000;0.000;2023-11-21T01:54:47;98804.44;;;8.13;87.87
31183;BME280;17813;0.000;0.000;2023-11-21T01:57:14;98815.19;;;8.10;88.30
31183;BME280;17813;0.000;0.000;2023-11-21T01:59:46;98814.44;;;8.08;88.48
31183;BME280;17813;0.000;0.000;2023-11-21T02:02:15;98800.28;;;8.09;88.44
31183;BME280;17813;0.000;0.000;2023-11-21T02:04:44;98810.75;;;8.11;88.40
31183;BME280;17813;0.000;0.000;2023-11-21T02:07:11;98818.59;;;8.12;88.30
31183;BME280;17813;0.000;0.000;2023-11-21T02:09:39;98813.97;;;8.16;87.97
31183;BME280;17813;0.000;0.000;2023-11-21T02:12:11;98816.50;;;8.17;88.12
31183;BME280;17813;0.000;0.000;2023-11-21T02:14:38;98824.16;;;8.22;88.07
31183;BME280;17813;0.000;0.000;2023-11-21T02:17:05;98831.88;;;8.25;87.81
31183;BME280;17813;0.000;0.000;2023-11-21T02:19:35;98817.72;;;8.26;88.23
31183;BME280;17813;0.000;0.000;2023-11-21T02:22:03;98822.91;;;8.27;88.03
31183;BME280;17813;0.000;0.000;2023-11-21T02:24:37;98820.28;;;8.27;88.04
31183;BME280;17813;0.000;0.000;2023-11-21T02:27:06;98815.75;;;8.29;88.02
31183;BME280;17813;0.000;0.000;2023-11-21T02:29:36;98808.75;;;8.28;87.64
31183;BME280;17813;0.000;0.000;2023-11-21T02:32:05;98817.06;;;8.22;88.80
31183;BME280;17813;0.000;0.000;2023-11-21T02:34:34;98813.22;;;8.14;88.60
31183;BME280;17813;0.000;0.000;2023-11-21T02:37:02;98812.47;;;8.12;88.80
31183;BME280;17813;0.000;0.000;2023-11-21T02:39:30;98805.47;;;8.11;88.37
31183;BME280;17813;0.000;0.000;2023-11-21T02:41:58;98812.66;;;8.09;88.41
31183;BME280;17813;0.000;0.000;2023-11-21T02:44:25;98815.19;;;8.10;88.43
31183;BME280;17813;0.000;0.000;2023-11-21T02:46:53;98816.81;;;8.13;88.48
31183;BME280;17813;0.000;0.000;2023-11-21T02:49:20;98820.28;;;8.13;88.24
31183;BME280;17813;0.000;0.000;2023-11-21T02:51:47;98822.00;;;8.14;88.48
31183;BME280;17813;0.000;0.000;2023-11-21T02:54:14;98823.69;;;8.15;88.45
31183;BME280;17813;0.000;0.000;2023-11-21T02:56:45;98821.78;;;8.17;88.50
31183;BME280;17813;0.000;0.000;2023-11-21T02:59:12;98825.56;;;8.13;88.86
31183;BME280;17813;0.000;0.000;2023-11-21T03:01:40;98823.69;;;8.15;88.75
31183;BME280;17813;0.000;0.000;2023-11-21T03:04:07;98822.19;;;8.11;89.14
31183;BME280;17813;0.000;0.000;2023-11-21T03:06:34;98821.88;;;8.16;89.02
31183;BME280;17813;0.000;0.000;2023-11-21T03:09:01;98818.03;;;8.21;88.45
31183;BME280;17813;0.000;0.000;2023-11-21T03:11:28;98829.44;;;8.22;88.45
31183;BME280;17813;0.000;0.000;2023-11-21T03:13:55;98819.72;;;8.22;88.60
31183;BME280;17813;0.000;0.000;2023-11-21T03:16:22;98825.75;;;8.24;88.31
31183;BME280;17813;0.000;0.000;2023-11-21T03:18:49;98826.50;;;8.26;88.34
31183;BME280;17813;0.000;0.000;2023-11-21T03:21:22;98824.63;;;8.28;88.14
31183;BME280;17813;0.000;0.000;2023-11-21T03:23:48;98824.34;;;8.33;88.06
31183;BME280;17813;0.000;0.000;2023-11-21T03:26:15;98817.44;;;8.30;88.34
31183;BME280;17813;0.000;0.000;2023-11-21T03:28:43;98825.38;;;8.30;88.23
31183;BME280;17813;0.000;0.000;2023-11-21T03:31:11;98830.00;;;8.27;88.64
31183;BME280;17813;0.000;0.000;2023-11-21T03:33:37;98829.16;;;8.26;88.30
31183;BME280;17813;0.000;0.000;2023-11-21T03:36:04;98825.66;;;8.26;88.45
31183;BME280;17813;0.000;0.000;2023-11-21T03:38:39;98830.09;;;8.25;88.11
31183;BME280;17813;0.000;0.000;2023-11-21T03:41:07;98834.13;;;8.31;88.30
31183;BME280;17813;0.000;0.000;2023-11-21T03:43:42;98833.03;;;8.35;88.29
31183;BME280;17813;0.000;0.000;2023-11-21T03:46:13;98838.13;;;8.38;88.39
31183;BME280;17813;0.000;0.000;2023-11-21T03:48:42;98835.59;;;8.36;88.15
31183;BME280;17813;0.000;0.000;2023-11-21T03:51:08;98838.41;;;8.33;88.51
31183;BME280;17813;0.000;0.000;2023-11-21T03:53:36;98833.19;;;8.32;88.12
31183;BME280;17813;0.000;0.000;2023-11-21T03:56:04;98831.41;;;8.32;88.40
31183;BME280;17813;0.000;0.000;2023-11-21T03:58:31;98837.56;;;8.33;88.22
31183;BME280;17813;0.000;0.000;2023-11-21T04:00:58;98845.41;;;8.34;88.64
31183;BME280;17813;0.000;0.000;2023-11-21T04:03:28;98850.78;;;8.33;87.93
31183;BME280;17813;0.000;0.000;2023-11-21T04:05:54;98847.25;;;8.32;87.88
31183;BME280;17813;0.000;0.000;2023-11-21T04:08:28;98854.31;;;8.32;88.42
31183;BME280;17813;0.000;0.000;2023-11-21T04:10:55;98852.53;;;8.32;88.29
31183;BME280;17813;0.000;0.000;2023-11-21T04:13:22;98840.97;;;8.35;88.43
31183;BME280;17813;0.000;0.000;2023-11-21T04:15:53;98848.78;;;8.36;88.03
31183;BME280;17813;0.000;0.000;2023-11-21T04:18:21;98855.59;;;8.41;88.26
31183;BME280;17813;0.000;0.000;2023-11-21T04:20:49;98857.38;;;8.40;88.15
31183;BME280;17813;0.000;0.000;2023-11-21T04:23:16;98864.44;;;8.40;88.04
31183;BME280;17813;0.000;0.000;2023-11-21T04:25:44;98860.88;;;8.41;88.10
31183;BME280;17813;0.000;0.000;2023-11-21T04:28:11;98856.44;;;8.41;88.19
31183;BME280;17813;0.000;0.000;2023-11-21T04:30:38;98867.00;;;8.41;88.15
31183;BME280;17813;0.000;0.000;2023-11-21T04:33:12;98863.59;;;8.39;88.07
31183;BME280;17813;0.000;0.000;2023-11-21T04:35:39;98866.88;;;8.28;88.54
31183;BME280;17813;0.000;0.000;2023-11-21T04:38:07;98864.72;;;8.21;88.78
31183;BME280;17813;0.000;0.000;2023-11-21T04:40:34;98866.78;;;8.16;89.22
31183;BME280;17813;0.000;0.000;2023-11-21T04:43:17;98870.56;;;8.12;89.10
31183;BME280;17813;0.000;0.000;2023-11-21T04:45:44;98874.53;;;8.04;89.64
31183;BME280;17813;0.000;0.000;2023-11-21T04:48:12;98878.75;;;7.93;90.35
31183;BME280;17813;0.000;0.000;2023-11-21T04:50:41;98877.44;;;7.86;90.81
31183;BME280;17813;0.000;0.000;2023-11-21T04:53:09;98877.53;;;7.84;91.06
31183;BME280;17813;0.000;0.000;2023-11-21T04:55:37;98877.53;;;7.84;90.58
31183;BME280;17813;0.000;0.000;2023-11-21T04:58:05;98883.84;;;7.82;91.20
31183;BME280;17813;0.000;0.000;2023-11-21T05:00:31;98881.19;;;7.82;90.73
31183;BME280;17813;0.000;0.000;2023-11-21T05:02:58;98887.31;;;7.82;90.55
31183;BME280;17813;0.000;0.000;2023-11-21T05:05:25;98890.38;;;7.74;91.24
31183;BME280;17813;0.000;0.000;2023-11-21T05:07:52;98886.03;;;7.73;91.22
31183;BME280;17813;0.000;0.000;2023-11-21T05:10:21;98890.38;;;7.74;90.30
31183;BME280;17813;0.000;0.000;2023-11-21T05:12:49;75970.78;;;-142.58;90.30
31183;BME280;17813;0.000;0.000;2023-11-21T05:15:19;98896.13;;;7.67;90.09
31183;BME280;17813;0.000;0.000;2023-11-21T05:17:46;98896.13;;;-142.58;88.82
31183;BME280;17813;0.000;0.000;2023-11-21T05:20:17;98899.75;;;7.50;89.80
31183;BME280;17813;0.000;0.000;2023-11-21T05:22:48;98900.38;;;7.39;89.93
31183;BME280;17813;0.000;0.000;2023-11-21T05:25:15;98897.31;;;7.31;90.14
31183;BME280;17813;0.000;0.000;2023-11-21T05:27:46;98895.31;;;7.21;89.96
31183;BME280;17813;0.000;0.000;2023-11-21T05:30:18;98897.53;;;7.13;90.19
31183;BME280;17813;0.000;0.000;2023-11-21T05:32:46;98897.78;;;7.08;90.57
31183;BME280;17813;0.000;0.000;2023-11-21T05:35:14;98909.53;;;7.02;90.36
31183;BME280;17813;0.000;0.000;2023-11-21T05:37:45;98907.66;;;6.89;90.38
31183;BME280;17813;0.000;0.000;2023-11-21T05:40:14;98910.13;;;6.76;90.37
31183;BME280;17813;0.000;0.000;2023-11-21T05:42:41;98915.13;;;6.65;90.80
31183;BME280;17813;0.000;0.000;2023-11-21T05:45:11;98918.44;;;6.53;90.79
31183;BME280;17813;0.000;0.000;2023-11-21T05:47:42;98912.13;;;6.39;91.04
31183;BME280;17813;0.000;0.000;2023-11-21T05:50:13;98917.97;;;6.29;90.96
31183;BME280;17813;0.000;0.000;2023-11-21T05:52:47;98924.75;;;6.17;91.24
31183;BME280;17813;0.000;0.000;2023-11-21T05:55:33;98920.81;;;6.08;91.29
31183;BME280;17813;0.000;0.000;2023-11-21T05:58:02;98917.56;;;6.03;90.84
31183;BME280;17813;0.000;0.000;2023-11-21T06:00:32;98919.66;;;5.97;91.06
31183;BME280;17813;0.000;0.000;2023-11-21T06:03:04;98926.19;;;5.90;91.13
31183;BME280;17813;0.000;0.000;2023-11-21T06:05:35;98921.19;;;5.84;91.60
31183;BME280;17813;0.000;0.000;2023-11-21T06:08:07;98920.88;;;5.72;91.34
31183;BME280;17813;0.000;0.000;2023-11-21T06:10:37;98925.91;;;5.60;91.67
31183;BME280;17813;0.000;0.000;2023-11-21T06:13:11;98929.84;;;5.51;91.35
31183;BME280;17813;0.000;0.000;2023-11-21T06:15:40;98939.06;;;5.42;91.25
31183;BME280;17813;0.000;0.000;2023-11-21T06:18:07;98943.69;;;5.37;92.04
31183;BME280;17813;0.000;0.000;2023-11-21T06:20:38;98942.38;;;5.29;91.59
31183;BME280;17813;0.000;0.000;2023-11-21T06:23:05;98950.47;;;5.24;91.98
31183;BME280;17813;0.000;0.000;2023-11-21T06:25:34;98948.84;;;5.22;91.64
31183;BME280;17813;0.000;0.000;2023-11-21T06:28:07;98957.06;;;5.14;91.75
31183;BME280;17813;0.000;0.000;2023-11-21T06:30:37;98966.72;;;5.13;92.18
31183;BME280;17813;0.000;0.000;2023-11-21T06:33:05;98972.06;;;5.12;92.22
31183;BME280;17813;0.000;0.000;2023-11-21T06:35:35;98976.53;;;5.10;92.05
31183;BME280;17813;0.000;0.000;2023-11-21T06:38:05;98975.63;;;5.11;92.41
31183;BME280;17813;0.000;0.000;2023-11-21T06:40:33;98979.03;;;5.13;92.15
31183;BME280;17813;0.000;0.000;2023-11-21T06:43:05;98984.19;;;5.14;92.04
31183;BME280;17813;0.000;0.000;2023-11-21T06:45:37;98988.53;;;5.15;92.24
31183;BME280;17813;0.000;0.000;2023-11-21T06:48:05;98986.13;;;5.11;91.99
31183;BME280;17813;0.000;0.000;2023-11-21T06:50:34;98989.97;;;5.04;92.08
31183;BME280;17813;0.000;0.000;2023-11-21T06:53:02;98988.41;;;5.00;92.30
31183;BME280;17813;0.000;0.000;2023-11-21T06:55:51;98997.00;;;5.03;92.08
31183;BME280;17813;0.000;0.000;2023-11-21T06:58:33;98994.16;;;5.08;92.68
31183;BME280;17813;0.000;0.000;2023-11-21T07:01:13;98992.53;;;5.05;93.81
31183;BME280;17813;0.000;0.000;2023-11-21T07:03:47;99000.41;;;5.05;93.94
31183;BME280;17813;0.000;0.000;2023-11-21T07:06:22;99001.59;;;5.17;93.81
31183;BME280;17813;0.000;0.000;2023-11-21T07:08:53;99016.38;;;5.20;93.74
31183;BME280;17813;0.000;0.000;2023-11-21T07:11:25;99011.22;;;5.37;93.45
31183;BME280;17813;0.000;0.000;2023-11-21T07:13:55;99019.91;;;5.56;92.79
31183;BME280;17813;0.000;0.000;2023-11-21T07:16:23;99023.34;;;5.75;92.01
31183;BME280;17813;0.000;0.000;2023-11-21T07:18:51;99027.31;;;5.84;92.37
31183;BME280;17813;0.000;0.000;2023-11-21T07:21:20;99018.56;;;5.84;92.41
31183;BME280;17813;0.000;0.000;2023-11-21T07:23:50;99027.16;;;5.87;91.71
31183;BME280;17813;0.000;0.000;2023-11-21T07:26:27;99027.88;;;5.91;92.25
31183;BME280;17813;0.000;0.000;2023-11-21T07:29:01;99027.88;;;5.91;92.43
31183;BME280;17813;0.000;0.000;2023-11-21T07:31:32;99037.75;;;5.86;93.07
31183;BME280;17813;0.000;0.000;2023-11-21T07:34:04;99031.91;;;5.98;92.29
31183;BME280;17813;0.000;0.000;2023-11-21T07:36:39;99027.41;;;6.00;92.58
31183;BME280;17813;0.000;0.000;2023-11-21T07:39:06;99036.72;;;6.07;92.68
31183;BME280;17813;0.000;0.000;2023-11-21T07:41:36;99029.34;;;6.13;92.69
31183;BME280;17813;0.000;0.000;2023-11-21T07:44:09;99036.41;;;6.30;91.96
31183;BME280;17813;0.000;0.000;2023-11-21T07:46:37;99034.06;;;6.41;92.00
31183;BME280;17813;0.000;0.000;2023-11-21T07:49:05;99037.31;;;6.47;91.52
31183;BME280;17813;0.000;0.000;2023-11-21T07:51:35;99037.22;;;6.48;91.85
31183;BME280;17813;0.000;0.000;2023-11-21T07:54:11;99041.03;;;6.42;91.75
31183;BME280;17813;0.000;0.000;2023-11-21T07:56:39;99042.25;;;6.53;91.97
31183;BME280;17813;0.000;0.000;2023-11-21T07:59:06;99047.19;;;6.59;92.00
31183;BME280;17813;0.000;0.000;2023-11-21T08:01:33;99052.00;;;6.68;91.09
31183;BME280;17813;0.000;0.000;2023-11-21T08:04:04;99055.41;;;6.70;91.17
31183;BME280;17813;0.000;0.000;2023-11-21T08:06:33;99058.63;;;6.75;91.66
31183;BME280;17813;0.000;0.000;2023-11-21T08:09:01;99066.06;;;6.84;91.15
31183;BME280;17813;0.000;0.000;2023-11-21T08:11:30;99067.84;;;6.84;91.22
31183;BME280;17813;0.000;0.000;2023-11-21T08:14:01;99067.06;;;6.82;91.33
31183;BME280;17813;0.000;0.000;2023-11-21T08:16:32;99064.44;;;6.82;91.13
31183;BME280;17813;0.000;0.000;2023-11-21T08:18:59;99072.03;;;6.88;90.99
31183;BME280;17813;0.000;0.000;2023-11-21T08:21:26;99077.06;;;6.92;90.91
31183;BME280;17813;0.000;0.000;2023-11-21T08:23:56;99067.19;;;6.96;90.90
31183;BME280;17813;0.000;0.000;2023-11-21T08:26:24;99074.16;;;6.97;90.77
31183;BME280;17813;0.000;0.000;2023-11-21T08:28:51;99073.91;;;7.01;90.73
31183;BME280;17813;0.000;0.000;2023-11-21T08:31:26;99075.78;;;6.99;90.82
31183;BME280;17813;0.000;0.000;2023-11-21T08:33:53;99075.38;;;7.07;90.81
31183;BME280;17813;0.000;0.000;2023-11-21T08:36:30;99079.56;;;7.11;90.97
31183;BME280;17813;0.000;0.000;2023-11-21T08:38:59;99073.25;;;7.14;91.02
31183;BME280;17813;0.000;0.000;2023-11-21T08:41:29;99082.72;;;7.18;90.96
31183;BME280;17813;0.000;0.000;2023-11-21T08:43:57;99087.66;;;7.24;90.93
31183;BME280;17813;0.000;0.000;2023-11-21T08:46:27;99083.66;;;7.32;91.15
31183;BME280;17813;0.000;0.000;2023-11-21T08:48:54;99083.31;;;7.38;91.32
31183;BME280;17813;0.000;0.000;2023-11-21T08:51:23;99089.72;;;7.50;90.91
31183;BME280;17813;0.000;0.000;2023-11-21T08:54:04;99092.28;;;7.52;91.46
31183;BME280;17813;0.000;0.000;2023-11-21T08:56:35;99081.03;;;7.64;91.03
31183;BME280;17813;0.000;0.000;2023-11-21T08:59:02;99090.38;;;7.69;91.11
31183;BME280;17813;0.000;0.000;2023-11-21T09:01:30;99092.97;;;7.87;91.02
31183;BME280;17813;0.000;0.000;2023-11-21T09:04:14;99086.31;;;7.95;90.99
31183;BME280;17813;0.000;0.000;2023-11-21T09:06:44;99096.25;;;8.06;90.93
31183;BME280;17813;0.000;0.000;2023-11-21T09:09:11;99087.44;;;8.21;90.69
31183;BME280;17813;0.000;0.000;2023-11-21T09:11:39;99087.34;;;8.38;90.18
31183;BME280;17813;0.000;0.000;2023-11-21T09:14:12;99096.44;;;8.49;89.99
31183;BME280;17813;0.000;0.000;2023-11-21T09:16:42;99095.03;;;8.57;90.04
31183;BME280;17813;0.000;0.000;2023-11-21T09:19:10;99095.31;;;8.67;90.03
31183;BME280;17813;0.000;0.000;2023-11-21T09:21:39;99097.78;;;8.70;89.91
31183;BME280;17813;0.000;0.000;2023-11-21T09:24:07;99096.56;;;8.76;89.62
31183;BME280;17813;0.000;0.000;2023-11-21T09:26:37;99101.59;;;8.80;89.78
31183;BME280;17813;0.000;0.000;2023-11-21T09:29:06;99099.69;;;8.82;89.49
31183;BME280;17813;0.000;0.000;2023-11-21T09:31:37;99108.38;;;8.84;89.31
31183;BME280;17813;0.000;0.000;2023-11-21T09:34:05;99113.56;;;8.86;89.97
31183;BME280;17813;0.000;0.000;2023-11-21T09:36:33;99108.94;;;8.89;89.90
31183;BME280;17813;0.000;0.000;2023-11-21T09:39:03;99111.59;;;8.89;90.07
31183;BME280;17813;0.000;0.000;2023-11-21T09:41:40;99118.50;;;8.92;89.91
31183;BME280;17813;0.000;0.000;2023-11-21T09:44:15;99120.88;;;8.96;89.75
31183;BME280;17813;0.000;0.000;2023-11-21T09:46:48;99125.88;;;9.01;89.61
31183;BME280;17813;0.000;0.000;2023-11-21T09:49:24;99126.44;;;9.06;89.61
31183;BME280;17813;0.000;0.000;2023-11-21T09:51:55;99129.84;;;9.08;89.18
31183;BME280;17813;0.000;0.000;2023-11-21T09:54:25;99127.47;;;9.03;89.56
31183;BME280;17813;0.000;0.000;2023-11-21T09:56:54;99128.91;;;9.09;89.02
31183;BME280;17813;0.000;0.000;2023-11-21T09:59:24;99121.25;;;9.05;89.54
31183;BME280;17813;0.000;0.000;2023-11-21T10:01:52;99125.41;;;9.09;89.29
31183;BME280;17813;0.000;0.000;2023-11-21T10:04:21;99132.22;;;9.13;89.50
31183;BME280;17813;0.000;0.000;2023-11-21T10:06:49;99139.28;;;9.12;89.59
31183;BME280;17813;0.000;0.000;2023-11-21T10:09:17;99139.00;;;9.17;89.36
31183;BME280;17813;0.000;0.000;2023-11-21T10:11:49;99135.53;;;9.16;89.26
31183;BME280;17813;0.000;0.000;2023-11-21T10:14:19;99129.84;;;9.08;89.26
31183;BME280;17813;0.000;0.000;2023-11-21T10:16:49;99127.94;;;9.10;89.04
31183;BME280;17813;0.000;0.000;2023-11-21T10:19:18;99125.31;;;9.10;89.13
31183;BME280;17813;0.000;0.000;2023-11-21T10:21:48;99122.75;;;9.09;89.36
31183;BME280;17813;0.000;0.000;2023-11-21T10:24:15;99122.56;;;9.12;89.70
31183;BME280;17813;0.000;0.000;2023-11-21T10:26:42;99132.03;;;9.16;89.72
31183;BME280;17813;0.000;0.000;2023-11-21T10:29:09;99127.38;;;9.05;89.90
31183;BME280;17813;0.000;0.000;2023-11-21T10:31:48;99132.13;;;9.14;90.09
31183;BME280;17813;0.000;0.000;2023-11-21T10:34:19;99142.22;;;9.08;89.88
31183;BME280;17813;0.000;0.000;2023-11-21T10:36:47;99138.44;;;9.12;89.67
31183;BME280;17813;0.000;0.000;2023-11-21T10:39:32;99140.81;;;9.02;89.87
31183;BME280;17813;0.000;0.000;2023-11-21T10:42:03;99147.31;;;9.11;89.95
31183;BME280;17813;0.000;0.000;2023-11-21T10:44:30;99154.31;;;9.12;89.57
31183;BME280;17813;0.000;0.000;2023-11-21T10:46:57;99150.53;;;9.16;89.01
31183;BME280;17813;0.000;0.000;2023-11-21T10:49:27;99161.31;;;9.13;89.40
31183;BME280;17813;0.000;0.000;2023-11-21T10:51:58;99151.56;;;9.13;89.69
31183;BME280;17813;0.000;0.000;2023-11-21T10:54:25;99155.16;;;9.12;90.13
31183;BME280;17813;0.000;0.000;2023-11-21T10:57:00;99147.88;;;9.01;90.01
31183;BME280;17813;0.000;0.000;2023-11-21T10:59:30;99157.78;;;8.98;90.33
31183;BME280;17813;0.000;0.000;2023-11-21T11:01:59;99153.25;;;9.00;90.37
31183;BME280;17813;0.000;0.000;2023-11-21T11:04:31;99145.88;;;8.91;90.31
31183;BME280;17813;0.000;0.000;2023-11-21T11:07:18;99157.13;;;8.94;90.25
31183;BME280;17813;0.000;0.000;2023-11-21T11:09:55;99157.88;;;8.96;90.50
31183;BME280;17813;0.000;0.000;2023-11-21T11:12:23;99148.38;;;9.08;89.92
31183;BME280;17813;0.000;0.000;2023-11-21T11:14:50;99157.91;;;9.11;89.76
31183;BME280;17813;0.000;0.000;2023-11-21T11:17:20;99147.22;;;9.12;89.76
31183;BME280;17813;0.000;0.000;2023-11-21T11:19:49;99153.66;;;9.08;90.01
31183;BME280;17813;0.000;0.000;2023-11-21T11:22:37;99157.44;;;9.04;88.86
31183;BME280;17813;0.000;0.000;2023-11-21T11:28:11;99162.63;;;9.06;90.00
31183;BME280;17813;0.000;0.000;2023-11-21T11:33:43;99161.78;;;9.05;90.66
31183;BME280;17813;0.000;0.000;2023-11-21T11:38:54;99174.44;;;9.14;89.94
31183;BME280;17813;0.000;0.000;2023-11-21T11:41:30;99173.84;;;8.95;90.36
31183;BME280;17813;0.000;0.000;2023-11-21T11:44:02;99183.22;;;9.00;90.27
31183;BME280;17813;0.000;0.000;2023-11-21T11:46:46;99190.75;;;8.92;90.10
31183;BME280;17813;0.000;0.000;2023-11-21T11:49:28;99185.66;;;8.89;90.39
31183;BME280;17813;0.000;0.000;2023-11-21T11:52:34;99176.28;;;8.84;90.83
31183;BME280;17813;0.000;0.000;2023-11-21T11:55:09;99193.84;;;8.85;91.01
31183;BME280;17813;0.000;0.000;2023-11-21T11:57:39;99178.94;;;8.84;91.51
31183;BME280;17813;0.000;0.000;2023-11-21T12:00:20;99181.75;;;8.81;90.73
31183;BME280;17813;0.000;0.000;2023-11-21T12:02:56;99193.19;;;8.81;91.29
31183;BME280;17813;0.000;0.000;2023-11-21T12:05:27;99183.00;;;8.89;91.09
31183;BME280;17813;0.000;0.000;2023-11-21T12:07:56;99187.16;;;8.93;91.10
31183;BME280;17813;0.000;0.000;2023-11-21T12:10:27;99185.09;;;8.98;90.90
31183;BME280;17813;0.000;0.000;2023-11-21T12:13:00;99192.84;;;9.01;90.70
31183;BME280;17813;0.000;0.000;2023-11-21T12:15:32;99194.56;;;9.02;90.91
31183;BME280;17813;0.000;0.000;2023-11-21T12:17:59;99206.16;;;9.00;91.51
31183;BME280;17813;0.000;0.000;2023-11-21T12:20:27;99200.41;;;9.08;90.95
31183;BME280;17813;0.000;0.000;2023-11-21T12:22:59;99199.56;;;9.07;90.51
31183;BME280;17813;0.000;0.000;2023-11-21T12:25:28;99203.44;;;9.01;91.32
31183;BME280;17813;0.000;0.000;2023-11-21T12:27:59;99213.13;;;8.87;91.70
31183;BME280;17813;0.000;0.000;2023-11-21T12:30:29;99219.34;;;8.86;91.53
31183;BME280;17813;0.000;0.000;2023-11-21T12:33:02;99214.03;;;8.72;91.93
31183;BME280;17813;0.000;0.000;2023-11-21T12:35:33;99218.28;;;8.74;91.86
31183;BME280;17813;0.000;0.000;2023-11-21T12:38:04;99217.78;;;8.67;92.21
31183;BME280;17813;0.000;0.000;2023-11-21T12:40:33;99222.47;;;8.62;91.92
31183;BME280;17813;0.000;0.000;2023-11-21T12:43:08;99223.00;;;8.53;92.11
31183;BME280;17813;0.000;0.000;2023-11-21T12:45:36;99235.03;;;8.59;92.50
31183;BME280;17813;0.000;0.000;2023-11-21T12:48:07;99241.06;;;8.61;92.25
31183;BME280;17813;0.000;0.000;2023-11-21T12:50:35;99234.84;;;8.62;91.72
31183;BME280;17813;0.000;0.000;2023-11-21T12:53:10;99240.47;;;8.56;91.84
31183;BME280;17813;0.000;0.000;2023-11-21T12:55:45;99244.16;;;8.53;91.67
31183;BME280;17813;0.000;0.000;2023-11-21T12:58:20;99252.16;;;8.52;91.03
31183;BME280;17813;0.000;0.000;2023-11-21T13:00:49;99249.63;;;8.34;91.54
31183;BME280;17813;0.000;0.000;2023-11-21T13:03:18;99245.88;;;8.38;91.56
31183;BME280;17813;0.000;0.000;2023-11-21T13:05:53;99243.56;;;8.32;91.29
31183;BME280;17813;0.000;0.000;2023-11-21T13:08:25;99256.00;;;8.30;91.63
31183;BME280;17813;0.000;0.000;2023-11-21T13:10:55;99262.03;;;8.17;91.89
31183;BME280;17813;0.000;0.000;2023-11-21T13:13:27;99261.03;;;8.19;91.72
31183;BME280;17813;0.000;0.000;2023-11-21T13:16:04;99268.19;;;8.17;91.71
31183;BME280;17813;0.000;0.000;2023-11-21T13:18:32;99268.00;;;8.20;91.46
31183;BME280;17813;0.000;0.000;2023-11-21T13:21:02;99268.50;;;8.11;91.07
31183;BME280;17813;0.000;0.000;2023-11-21T13:23:36;99276.09;;;8.01;91.44
31183;BME280;17813;0.000;0.000;2023-11-21T13:26:08;99285.63;;;8.04;91.45
31183;BME280;17813;0.000;0.000;2023-11-21T13:28:37;99283.25;;;7.99;91.43
31183;BME280;17813;0.000;0.000;2023-11-21T13:31:06;99285.69;;;7.87;91.74
31183;BME280;17813;0.000;0.000;2023-11-21T13:33:44;99293.13;;;7.79;91.18
31183;BME280;17813;0.000;0.000;2023-11-21T13:36:17;99296.47;;;7.49;92.08
31183;BME280;17813;0.000;0.000;2023-11-21T13:38:51;99301.34;;;7.39;92.27
31183;BME280;17813;0.000;0.000;2023-11-21T13:41:25;99308.19;;;7.43;92.35
31183;BME280;17813;0.000;0.000;2023-11-21T13:43:58;99310.03;;;7.41;92.78
31183;BME280;17813;0.000;0.000;2023-11-21T13:46:44;99312.75;;;7.40;92.86